Northbridge, MA (01534)

11:59 AM EDT on August 25, 2016 (GMT -0400)
McQuades Lane | | Change Station

Elev 330 ft 42.16 °N, 71.66 °W | Updated 8 seconds ago

Partly Cloudy
Partly Cloudy
82.0 °F
Feels Like 84 °F
N
5.4
Wind Variable Wind from South
Gusts 13.6 mph

Today
High -- | Low -- °F
--% Chance of Precip.
Yesterday
High -- | Low -- °F
Precip. -- in
Pressure 30.08 in
Visibility 10.0 miles
Clouds Few 3000 ft
Heat Index 84 °F
Dew Point 64 °F
Humidity 55%
Rainfall 0.00 in
Snow Depth Not available.
6:05 AM 7:31 PM
Last Quarter, 44% visible
METAR KORH 251554Z 23013G21KT 10SM FEW030 26/17 A3009 RMK AO2 SLP185 T02560172
Pressure 30.08 in
Visibility 10.0 miles
Clouds Few 3000 ft
Heat Index 84 °F
Dew Point 64 °F
Humidity 55%
Rainfall 0.00 in
Snow Depth Not available.
6:05 AM 7:31 PM
Last Quarter, 44% visible
METAR KORH 251554Z 23013G21KT 10SM FEW030 26/17 A3009 RMK AO2 SLP185 T02560172

10-Day Weather Forecast

Almanac

Astronomy

Aug. 25, 2016 Rise Set
Actual Time
Civil Twilight
Nautical Twilight
Astronomical Twilight
Moon
Length of Visible Light
Length of Day
Tomorrow will be .
, % of the Moon is Illuminated

Today's Extremes

State Highs State Lows

Community

WunderPhotos

Upload Photos

1,934,867 photos uploaded!

WunderBlog® & News

Nearby

Air Quality

  Air Quality AQ Index Pollutant
Not available.

Snow Depth

Station Depth Elevation

Earthquake Activity

City Distance Mag. Time & Date
Minimum magnitude displayed is 2.5.

Coastal Water Temperatures

Place Temperature

Stations

Nearby Weather Stations

Station Location Temp. Windchill Dew Point Humidity Wind Precip. Elev Updated Type
                   

Watches & Warnings

There are currently no watches in effect.